sensor_id;sensor_type;location;lat;lon;timestamp;P1;durP1;ratioP1;P2;durP2;ratioP2
13743;SDS011;6943;52.368;9.966;2023-05-29T00:00:21;5.50;;;4.27;;
13743;SDS011;6943;52.368;9.966;2023-05-29T00:02:49;8.70;;;4.30;;
13743;SDS011;6943;52.368;9.966;2023-05-29T00:05:15;7.60;;;3.93;;
13743;SDS011;6943;52.368;9.966;2023-05-29T00:07:41;6.40;;;4.37;;
13743;SDS011;6943;52.368;9.966;2023-05-29T00:10:08;6.43;;;4.20;;
13743;SDS011;6943;52.368;9.966;2023-05-29T00:12:34;7.47;;;3.93;;
13743;SDS011;6943;52.368;9.966;2023-05-29T00:15:00;7.53;;;4.13;;
13743;SDS011;6943;52.368;9.966;2023-05-29T00:17:28;8.10;;;4.07;;
13743;SDS011;6943;52.368;9.966;2023-05-29T00:19:56;6.77;;;4.10;;
13743;SDS011;6943;52.368;9.966;2023-05-29T00:22:23;7.63;;;3.80;;
13743;SDS011;6943;52.368;9.966;2023-05-29T00:24:50;8.80;;;4.07;;
13743;SDS011;6943;52.368;9.966;2023-05-29T00:27:16;6.97;;;4.33;;
13743;SDS011;6943;52.368;9.966;2023-05-29T00:29:42;6.07;;;3.73;;
13743;SDS011;6943;52.368;9.966;2023-05-29T00:32:09;8.87;;;5.03;;
13743;SDS011;6943;52.368;9.966;2023-05-29T00:34:35;5.87;;;3.37;;
13743;SDS011;6943;52.368;9.966;2023-05-29T00:37:01;9.87;;;4.40;;
13743;SDS011;6943;52.368;9.966;2023-05-29T00:39:27;7.43;;;4.10;;
13743;SDS011;6943;52.368;9.966;2023-05-29T00:41:53;7.70;;;3.90;;
13743;SDS011;6943;52.368;9.966;2023-05-29T00:44:19;9.90;;;4.27;;
13743;SDS011;6943;52.368;9.966;2023-05-29T00:46:46;7.43;;;3.90;;
13743;SDS011;6943;52.368;9.966;2023-05-29T00:49:12;8.10;;;4.30;;
13743;SDS011;6943;52.368;9.966;2023-05-29T00:51:38;7.67;;;3.73;;
13743;SDS011;6943;52.368;9.966;2023-05-29T00:54:06;7.27;;;4.00;;
13743;SDS011;6943;52.368;9.966;2023-05-29T00:56:38;10.07;;;4.23;;
13743;SDS011;6943;52.368;9.966;2023-05-29T00:59:04;7.40;;;3.97;;
13743;SDS011;6943;52.368;9.966;2023-05-29T01:01:31;10.03;;;4.60;;
13743;SDS011;6943;52.368;9.966;2023-05-29T01:03:57;7.40;;;4.10;;
13743;SDS011;6943;52.368;9.966;2023-05-29T01:06:25;5.77;;;3.77;;
13743;SDS011;6943;52.368;9.966;2023-05-29T01:08:51;8.30;;;4.10;;
13743;SDS011;6943;52.368;9.966;2023-05-29T01:11:21;8.83;;;4.07;;
13743;SDS011;6943;52.368;9.966;2023-05-29T01:13:51;9.93;;;4.10;;
13743;SDS011;6943;52.368;9.966;2023-05-29T01:16:31;8.97;;;3.37;;
13743;SDS011;6943;52.368;9.966;2023-05-29T01:19:04;6.73;;;3.60;;
13743;SDS011;6943;52.368;9.966;2023-05-29T01:24:13;7.83;;;3.80;;
13743;SDS011;6943;52.368;9.966;2023-05-29T01:26:45;8.67;;;4.03;;
13743;SDS011;6943;52.368;9.966;2023-05-29T01:29:17;7.37;;;3.40;;
13743;SDS011;6943;52.368;9.966;2023-05-29T01:31:44;14.63;;;4.30;;
13743;SDS011;6943;52.368;9.966;2023-05-29T01:34:11;7.97;;;3.67;;
13743;SDS011;6943;52.368;9.966;2023-05-29T01:36:37;7.87;;;3.43;;
13743;SDS011;6943;52.368;9.966;2023-05-29T01:39:03;5.97;;;3.23;;
13743;SDS011;6943;52.368;9.966;2023-05-29T01:41:30;6.23;;;3.60;;
13743;SDS011;6943;52.368;9.966;2023-05-29T01:43:57;6.77;;;3.60;;
13743;SDS011;6943;52.368;9.966;2023-05-29T01:46:24;6.27;;;3.63;;
13743;SDS011;6943;52.368;9.966;2023-05-29T01:48:50;7.63;;;3.50;;
13743;SDS011;6943;52.368;9.966;2023-05-29T01:51:16;7.90;;;3.80;;
13743;SDS011;6943;52.368;9.966;2023-05-29T01:53:42;8.97;;;3.47;;
13743;SDS011;6943;52.368;9.966;2023-05-29T01:56:11;7.93;;;3.63;;
13743;SDS011;6943;52.368;9.966;2023-05-29T01:58:38;7.83;;;3.57;;
13743;SDS011;6943;52.368;9.966;2023-05-29T02:01:05;11.37;;;3.67;;
13743;SDS011;6943;52.368;9.966;2023-05-29T02:03:31;9.33;;;3.70;;
13743;SDS011;6943;52.368;9.966;2023-05-29T02:05:57;9.37;;;4.40;;
13743;SDS011;6943;52.368;9.966;2023-05-29T02:08:24;5.80;;;3.30;;
13743;SDS011;6943;52.368;9.966;2023-05-29T02:10:50;7.17;;;3.87;;
13743;SDS011;6943;52.368;9.966;2023-05-29T02:13:16;7.73;;;3.77;;
13743;SDS011;6943;52.368;9.966;2023-05-29T02:15:42;11.40;;;4.27;;
13743;SDS011;6943;52.368;9.966;2023-05-29T02:18:12;7.63;;;3.37;;
13743;SDS011;6943;52.368;9.966;2023-05-29T02:20:38;8.80;;;3.37;;
13743;SDS011;6943;52.368;9.966;2023-05-29T02:23:04;6.17;;;3.33;;
13743;SDS011;6943;52.368;9.966;2023-05-29T02:25:30;8.40;;;3.67;;
13743;SDS011;6943;52.368;9.966;2023-05-29T02:27:56;6.30;;;3.03;;
13743;SDS011;6943;52.368;9.966;2023-05-29T02:30:22;9.37;;;4.07;;
13743;SDS011;6943;52.368;9.966;2023-05-29T02:32:48;5.37;;;3.10;;
13743;SDS011;6943;52.368;9.966;2023-05-29T02:35:14;6.20;;;3.80;;
13743;SDS011;6943;52.368;9.966;2023-05-29T02:37:42;8.33;;;4.03;;
13743;SDS011;6943;52.368;9.966;2023-05-29T02:40:08;8.43;;;3.43;;
13743;SDS011;6943;52.368;9.966;2023-05-29T02:42:34;10.70;;;4.10;;
13743;SDS011;6943;52.368;9.966;2023-05-29T02:45:00;6.63;;;2.97;;
13743;SDS011;6943;52.368;9.966;2023-05-29T02:47:26;10.47;;;3.90;;
13743;SDS011;6943;52.368;9.966;2023-05-29T02:49:52;7.87;;;3.03;;
13743;SDS011;6943;52.368;9.966;2023-05-29T02:52:18;11.83;;;3.73;;
13743;SDS011;6943;52.368;9.966;2023-05-29T02:54:44;8.47;;;3.97;;
13743;SDS011;6943;52.368;9.966;2023-05-29T02:57:10;9.07;;;3.80;;
13743;SDS011;6943;52.368;9.966;2023-05-29T02:59:37;9.40;;;3.77;;
13743;SDS011;6943;52.368;9.966;2023-05-29T03:02:03;7.83;;;3.80;;
13743;SDS011;6943;52.368;9.966;2023-05-29T03:04:29;8.80;;;3.70;;
13743;SDS011;6943;52.368;9.966;2023-05-29T03:06:55;7.23;;;3.57;;
13743;SDS011;6943;52.368;9.966;2023-05-29T03:09:20;6.30;;;3.13;;
13743;SDS011;6943;52.368;9.966;2023-05-29T03:11:46;6.73;;;3.30;;
13743;SDS011;6943;52.368;9.966;2023-05-29T03:14:14;5.97;;;3.47;;
13743;SDS011;6943;52.368;9.966;2023-05-29T03:16:40;8.67;;;3.90;;
13743;SDS011;6943;52.368;9.966;2023-05-29T03:19:06;6.77;;;3.07;;
13743;SDS011;6943;52.368;9.966;2023-05-29T03:21:33;8.70;;;3.77;;
13743;SDS011;6943;52.368;9.966;2023-05-29T03:23:59;5.83;;;3.00;;
13743;SDS011;6943;52.368;9.966;2023-05-29T03:26:25;9.23;;;3.40;;
13743;SDS011;6943;52.368;9.966;2023-05-29T03:28:51;9.37;;;3.37;;
13743;SDS011;6943;52.368;9.966;2023-05-29T03:31:17;5.87;;;2.97;;
13743;SDS011;6943;52.368;9.966;2023-05-29T03:33:43;8.47;;;3.20;;
13743;SDS011;6943;52.368;9.966;2023-05-29T03:36:10;8.57;;;3.50;;
13743;SDS011;6943;52.368;9.966;2023-05-29T03:38:36;7.70;;;3.43;;
13743;SDS011;6943;52.368;9.966;2023-05-29T03:41:02;8.27;;;3.10;;
13743;SDS011;6943;52.368;9.966;2023-05-29T03:43:28;6.73;;;3.33;;
13743;SDS011;6943;52.368;9.966;2023-05-29T03:45:54;5.97;;;3.20;;
13743;SDS011;6943;52.368;9.966;2023-05-29T03:48:20;8.57;;;3.57;;
13743;SDS011;6943;52.368;9.966;2023-05-29T03:50:46;7.50;;;3.10;;
13743;SDS011;6943;52.368;9.966;2023-05-29T03:53:12;8.30;;;3.30;;
13743;SDS011;6943;52.368;9.966;2023-05-29T03:55:38;8.07;;;3.50;;
13743;SDS011;6943;52.368;9.966;2023-05-29T03:58:04;8.03;;;3.30;;
13743;SDS011;6943;52.368;9.966;2023-05-29T04:00:30;5.63;;;3.17;;
13743;SDS011;6943;52.368;9.966;2023-05-29T04:02:56;6.83;;;3.07;;
13743;SDS011;6943;52.368;9.966;2023-05-29T04:05:22;5.97;;;3.00;;
13743;SDS011;6943;52.368;9.966;2023-05-29T04:07:47;8.93;;;3.73;;
13743;SDS011;6943;52.368;9.966;2023-05-29T04:10:14;8.90;;;3.20;;
13743;SDS011;6943;52.368;9.966;2023-05-29T04:12:40;8.03;;;3.60;;
13743;SDS011;6943;52.368;9.966;2023-05-29T04:15:06;7.43;;;3.10;;
13743;SDS011;6943;52.368;9.966;2023-05-29T04:17:32;9.10;;;3.60;;
13743;SDS011;6943;52.368;9.966;2023-05-29T04:19:58;5.93;;;3.10;;
13743;SDS011;6943;52.368;9.966;2023-05-29T04:22:27;6.20;;;2.50;;
13743;SDS011;6943;52.368;9.966;2023-05-29T04:24:53;7.60;;;3.13;;
13743;SDS011;6943;52.368;9.966;2023-05-29T04:27:19;8.17;;;3.67;;
13743;SDS011;6943;52.368;9.966;2023-05-29T04:29:45;7.90;;;3.33;;
13743;SDS011;6943;52.368;9.966;2023-05-29T04:32:11;9.17;;;3.17;;
13743;SDS011;6943;52.368;9.966;2023-05-29T04:34:37;8.37;;;3.67;;
13743;SDS011;6943;52.368;9.966;2023-05-29T04:37:09;5.53;;;2.73;;
13743;SDS011;6943;52.368;9.966;2023-05-29T04:39:35;9.70;;;3.13;;
13743;SDS011;6943;52.368;9.966;2023-05-29T04:42:01;8.83;;;3.50;;
13743;SDS011;6943;52.368;9.966;2023-05-29T04:44:27;8.33;;;3.00;;
13743;SDS011;6943;52.368;9.966;2023-05-29T04:46:54;9.43;;;3.00;;
13743;SDS011;6943;52.368;9.966;2023-05-29T04:49:21;8.63;;;3.10;;
13743;SDS011;6943;52.368;9.966;2023-05-29T04:51:47;8.97;;;2.80;;
13743;SDS011;6943;52.368;9.966;2023-05-29T04:54:17;8.50;;;3.13;;
13743;SDS011;6943;52.368;9.966;2023-05-29T04:56:44;9.83;;;3.17;;
13743;SDS011;6943;52.368;9.966;2023-05-29T04:59:11;8.37;;;3.07;;
13743;SDS011;6943;52.368;9.966;2023-05-29T05:01:37;9.90;;;3.07;;
13743;SDS011;6943;52.368;9.966;2023-05-29T05:04:03;8.67;;;2.53;;
13743;SDS011;6943;52.368;9.966;2023-05-29T05:06:29;10.63;;;3.23;;
13743;SDS011;6943;52.368;9.966;2023-05-29T05:08:55;6.27;;;2.57;;
13743;SDS011;6943;52.368;9.966;2023-05-29T05:11:22;6.80;;;2.63;;
13743;SDS011;6943;52.368;9.966;2023-05-29T05:13:49;8.00;;;3.10;;
13743;SDS011;6943;52.368;9.966;2023-05-29T05:16:15;7.80;;;2.77;;
13743;SDS011;6943;52.368;9.966;2023-05-29T05:18:41;7.73;;;2.87;;
13743;SDS011;6943;52.368;9.966;2023-05-29T05:21:07;6.73;;;3.13;;
13743;SDS011;6943;52.368;9.966;2023-05-29T05:23:33;9.13;;;3.65;;
13743;SDS011;6943;52.368;9.966;2023-05-29T05:25:59;7.70;;;3.13;;
13743;SDS011;6943;52.368;9.966;2023-05-29T05:28:25;9.50;;;3.08;;
13743;SDS011;6943;52.368;9.966;2023-05-29T05:30:51;10.55;;;3.50;;
13743;SDS011;6943;52.368;9.966;2023-05-29T05:33:17;5.87;;;2.50;;
13743;SDS011;6943;52.368;9.966;2023-05-29T05:35:43;5.27;;;2.40;;
13743;SDS011;6943;52.368;9.966;2023-05-29T05:38:09;6.40;;;3.03;;
13743;SDS011;6943;52.368;9.966;2023-05-29T05:40:35;7.97;;;3.40;;
13743;SDS011;6943;52.368;9.966;2023-05-29T05:43:01;6.75;;;3.00;;
13743;SDS011;6943;52.368;9.966;2023-05-29T05:45:27;8.75;;;3.20;;
13743;SDS011;6943;52.368;9.966;2023-05-29T05:47:52;6.45;;;3.03;;
13743;SDS011;6943;52.368;9.966;2023-05-29T05:50:18;9.48;;;2.90;;
13743;SDS011;6943;52.368;9.966;2023-05-29T05:52:46;8.88;;;2.85;;
13743;SDS011;6943;52.368;9.966;2023-05-29T05:55:12;8.23;;;3.05;;
13743;SDS011;6943;52.368;9.966;2023-05-29T05:57:37;7.53;;;3.15;;
13743;SDS011;6943;52.368;9.966;2023-05-29T06:00:04;6.78;;;2.75;;
13743;SDS011;6943;52.368;9.966;2023-05-29T06:02:36;4.97;;;2.60;;
13743;SDS011;6943;52.368;9.966;2023-05-29T06:05:02;6.88;;;2.72;;
13743;SDS011;6943;52.368;9.966;2023-05-29T06:07:32;8.00;;;3.00;;
13743;SDS011;6943;52.368;9.966;2023-05-29T06:09:58;6.97;;;3.20;;
13743;SDS011;6943;52.368;9.966;2023-05-29T06:12:23;9.00;;;3.08;;
13743;SDS011;6943;52.368;9.966;2023-05-29T06:14:49;6.30;;;2.70;;
13743;SDS011;6943;52.368;9.966;2023-05-29T06:17:15;6.57;;;2.70;;
13743;SDS011;6943;52.368;9.966;2023-05-29T06:19:41;5.60;;;2.85;;
13743;SDS011;6943;52.368;9.966;2023-05-29T06:22:07;6.57;;;2.72;;
13743;SDS011;6943;52.368;9.966;2023-05-29T06:24:33;8.50;;;3.22;;
13743;SDS011;6943;52.368;9.966;2023-05-29T06:27:00;6.70;;;3.20;;
13743;SDS011;6943;52.368;9.966;2023-05-29T06:29:26;7.60;;;3.00;;
13743;SDS011;6943;52.368;9.966;2023-05-29T06:31:52;7.93;;;3.22;;
13743;SDS011;6943;52.368;9.966;2023-05-29T06:34:18;8.23;;;2.85;;
13743;SDS011;6943;52.368;9.966;2023-05-29T06:36:44;7.78;;;2.90;;
13743;SDS011;6943;52.368;9.966;2023-05-29T06:39:10;7.90;;;2.88;;
13743;SDS011;6943;52.368;9.966;2023-05-29T06:41:35;10.75;;;3.20;;
13743;SDS011;6943;52.368;9.966;2023-05-29T06:44:01;5.93;;;3.00;;
13743;SDS011;6943;52.368;9.966;2023-05-29T06:46:27;6.30;;;2.90;;
13743;SDS011;6943;52.368;9.966;2023-05-29T06:48:53;10.23;;;3.08;;
13743;SDS011;6943;52.368;9.966;2023-05-29T06:51:19;6.57;;;2.50;;
13743;SDS011;6943;52.368;9.966;2023-05-29T06:53:45;9.38;;;3.28;;
13743;SDS011;6943;52.368;9.966;2023-05-29T06:56:11;10.07;;;3.63;;
13743;SDS011;6943;52.368;9.966;2023-05-29T06:58:37;8.25;;;2.80;;
13743;SDS011;6943;52.368;9.966;2023-05-29T07:01:03;8.88;;;3.03;;
13743;SDS011;6943;52.368;9.966;2023-05-29T07:03:29;8.90;;;3.30;;
13743;SDS011;6943;52.368;9.966;2023-05-29T07:05:55;9.18;;;3.10;;
13743;SDS011;6943;52.368;9.966;2023-05-29T07:08:21;7.35;;;3.03;;
13743;SDS011;6943;52.368;9.966;2023-05-29T07:10:46;8.10;;;3.25;;
13743;SDS011;6943;52.368;9.966;2023-05-29T07:13:14;6.57;;;3.28;;
13743;SDS011;6943;52.368;9.966;2023-05-29T07:15:41;6.40;;;2.80;;
13743;SDS011;6943;52.368;9.966;2023-05-29T07:18:07;5.97;;;2.63;;
13743;SDS011;6943;52.368;9.966;2023-05-29T07:20:33;7.15;;;2.83;;
13743;SDS011;6943;52.368;9.966;2023-05-29T07:22:59;6.93;;;3.20;;
13743;SDS011;6943;52.368;9.966;2023-05-29T07:25:25;7.00;;;2.78;;
13743;SDS011;6943;52.368;9.966;2023-05-29T07:27:51;7.65;;;3.08;;
13743;SDS011;6943;52.368;9.966;2023-05-29T07:30:17;9.27;;;3.53;;
13743;SDS011;6943;52.368;9.966;2023-05-29T07:32:43;9.00;;;3.33;;
13743;SDS011;6943;52.368;9.966;2023-05-29T07:35:09;8.35;;;3.33;;
13743;SDS011;6943;52.368;9.966;2023-05-29T07:37:35;7.10;;;2.83;;
13743;SDS011;6943;52.368;9.966;2023-05-29T07:40:01;7.45;;;3.20;;
13743;SDS011;6943;52.368;9.966;2023-05-29T07:42:30;9.13;;;3.60;;
13743;SDS011;6943;52.368;9.966;2023-05-29T07:44:56;11.00;;;3.22;;
13743;SDS011;6943;52.368;9.966;2023-05-29T07:47:22;5.93;;;2.88;;
13743;SDS011;6943;52.368;9.966;2023-05-29T07:49:48;6.75;;;2.78;;
13743;SDS011;6943;52.368;9.966;2023-05-29T07:52:15;9.23;;;2.83;;
13743;SDS011;6943;52.368;9.966;2023-05-29T07:54:41;5.72;;;2.40;;
13743;SDS011;6943;52.368;9.966;2023-05-29T07:57:07;7.38;;;2.70;;
13743;SDS011;6943;52.368;9.966;2023-05-29T07:59:35;7.10;;;2.45;;
13743;SDS011;6943;52.368;9.966;2023-05-29T08:02:01;7.53;;;3.03;;
13743;SDS011;6943;52.368;9.966;2023-05-29T08:04:28;5.97;;;2.83;;
13743;SDS011;6943;52.368;9.966;2023-05-29T08:06:54;6.75;;;3.22;;
13743;SDS011;6943;52.368;9.966;2023-05-29T08:09:20;8.23;;;2.95;;
13743;SDS011;6943;52.368;9.966;2023-05-29T08:11:46;5.07;;;2.58;;
13743;SDS011;6943;52.368;9.966;2023-05-29T08:14:15;7.00;;;2.95;;
13743;SDS011;6943;52.368;9.966;2023-05-29T08:16:41;5.15;;;2.53;;
13743;SDS011;6943;52.368;9.966;2023-05-29T08:19:07;7.78;;;3.10;;
13743;SDS011;6943;52.368;9.966;2023-05-29T08:21:33;6.35;;;2.40;;
13743;SDS011;6943;52.368;9.966;2023-05-29T08:24:01;6.50;;;2.45;;
13743;SDS011;6943;52.368;9.966;2023-05-29T08:26:29;5.72;;;2.20;;
13743;SDS011;6943;52.368;9.966;2023-05-29T08:28:56;7.50;;;3.38;;
13743;SDS011;6943;52.368;9.966;2023-05-29T08:31:22;5.97;;;2.75;;
13743;SDS011;6943;52.368;9.966;2023-05-29T08:33:50;4.90;;;2.42;;
13743;SDS011;6943;52.368;9.966;2023-05-29T08:36:17;7.07;;;2.80;;
13743;SDS011;6943;52.368;9.966;2023-05-29T08:38:45;6.90;;;2.60;;
13743;SDS011;6943;52.368;9.966;2023-05-29T08:41:12;6.95;;;2.80;;
13743;SDS011;6943;52.368;9.966;2023-05-29T08:43:42;6.60;;;3.00;;
13743;SDS011;6943;52.368;9.966;2023-05-29T08:46:08;7.82;;;2.88;;
13743;SDS011;6943;52.368;9.966;2023-05-29T08:48:34;5.93;;;2.55;;
13743;SDS011;6943;52.368;9.966;2023-05-29T08:51:02;5.90;;;2.50;;
13743;SDS011;6943;52.368;9.966;2023-05-29T08:53:28;5.90;;;2.97;;
13743;SDS011;6943;52.368;9.966;2023-05-29T08:55:54;8.10;;;2.95;;
13743;SDS011;6943;52.368;9.966;2023-05-29T08:58:21;5.30;;;2.50;;
13743;SDS011;6943;52.368;9.966;2023-05-29T09:00:47;6.70;;;2.97;;
13743;SDS011;6943;52.368;9.966;2023-05-29T09:03:13;5.30;;;2.63;;
13743;SDS011;6943;52.368;9.966;2023-05-29T09:05:40;6.10;;;2.50;;
13743;SDS011;6943;52.368;9.966;2023-05-29T09:08:06;7.40;;;2.65;;
13743;SDS011;6943;52.368;9.966;2023-05-29T09:10:33;6.85;;;2.20;;
13743;SDS011;6943;52.368;9.966;2023-05-29T09:13:00;4.10;;;2.08;;
13743;SDS011;6943;52.368;9.966;2023-05-29T09:15:26;5.20;;;2.70;;
13743;SDS011;6943;52.368;9.966;2023-05-29T09:17:52;5.30;;;2.17;;
13743;SDS011;6943;52.368;9.966;2023-05-29T09:20:19;4.22;;;1.98;;
13743;SDS011;6943;52.368;9.966;2023-05-29T09:25:22;5.95;;;2.50;;
13743;SDS011;6943;52.368;9.966;2023-05-29T09:27:50;5.50;;;2.38;;
13743;SDS011;6943;52.368;9.966;2023-05-29T09:30:30;5.25;;;2.95;;
13743;SDS011;6943;52.368;9.966;2023-05-29T09:32:56;5.65;;;2.28;;
13743;SDS011;6943;52.368;9.966;2023-05-29T09:35:22;8.27;;;2.90;;
13743;SDS011;6943;52.368;9.966;2023-05-29T09:37:48;8.85;;;2.47;;
13743;SDS011;6943;52.368;9.966;2023-05-29T09:40:15;6.20;;;2.40;;
13743;SDS011;6943;52.368;9.966;2023-05-29T09:42:41;8.80;;;2.80;;
13743;SDS011;6943;52.368;9.966;2023-05-29T09:45:07;5.80;;;3.10;;
13743;SDS011;6943;52.368;9.966;2023-05-29T09:47:33;6.30;;;2.73;;
13743;SDS011;6943;52.368;9.966;2023-05-29T09:50:00;6.80;;;2.63;;
13743;SDS011;6943;52.368;9.966;2023-05-29T09:52:26;6.30;;;2.53;;
13743;SDS011;6943;52.368;9.966;2023-05-29T09:54:55;8.67;;;3.33;;
13743;SDS011;6943;52.368;9.966;2023-05-29T09:57:22;7.20;;;4.17;;
13743;SDS011;6943;52.368;9.966;2023-05-29T09:59:48;7.97;;;2.88;;
13743;SDS011;6943;52.368;9.966;2023-05-29T10:02:17;7.80;;;2.40;;
13743;SDS011;6943;52.368;9.966;2023-05-29T10:04:43;7.68;;;3.08;;
13743;SDS011;6943;52.368;9.966;2023-05-29T10:09:51;5.15;;;2.33;;
13743;SDS011;6943;52.368;9.966;2023-05-29T10:12:19;6.05;;;2.45;;
13743;SDS011;6943;52.368;9.966;2023-05-29T10:14:46;6.75;;;2.35;;
13743;SDS011;6943;52.368;9.966;2023-05-29T10:17:12;5.32;;;1.98;;
13743;SDS011;6943;52.368;9.966;2023-05-29T10:19:39;5.57;;;2.72;;
13743;SDS011;6943;52.368;9.966;2023-05-29T10:22:07;4.88;;;2.50;;
13743;SDS011;6943;52.368;9.966;2023-05-29T10:24:35;6.17;;;2.53;;
13743;SDS011;6943;52.368;9.966;2023-05-29T10:27:02;6.95;;;2.50;;
13743;SDS011;6943;52.368;9.966;2023-05-29T10:29:37;4.43;;;2.43;;
13743;SDS011;6943;52.368;9.966;2023-05-29T10:34:42;4.50;;;2.90;;
13743;SDS011;6943;52.368;9.966;2023-05-29T10:37:31;6.43;;;2.37;;
13743;SDS011;6943;52.368;9.966;2023-05-29T10:40:06;6.70;;;2.77;;
13743;SDS011;6943;52.368;9.966;2023-05-29T10:42:40;4.67;;;2.77;;
13743;SDS011;6943;52.368;9.966;2023-05-29T10:45:08;5.33;;;1.97;;
13743;SDS011;6943;52.368;9.966;2023-05-29T10:47:34;7.50;;;2.53;;
13743;SDS011;6943;52.368;9.966;2023-05-29T10:50:00;5.43;;;2.30;;
13743;SDS011;6943;52.368;9.966;2023-05-29T10:52:30;4.33;;;2.10;;
13743;SDS011;6943;52.368;9.966;2023-05-29T10:54:56;6.07;;;2.17;;
13743;SDS011;6943;52.368;9.966;2023-05-29T10:57:22;6.37;;;2.60;;
13743;SDS011;6943;52.368;9.966;2023-05-29T10:59:48;5.03;;;2.17;;
13743;SDS011;6943;52.368;9.966;2023-05-29T11:02:22;6.23;;;2.43;;
13743;SDS011;6943;52.368;9.966;2023-05-29T11:05:04;4.33;;;2.17;;
13743;SDS011;6943;52.368;9.966;2023-05-29T11:07:50;4.50;;;2.20;;
13743;SDS011;6943;52.368;9.966;2023-05-29T11:10:18;4.53;;;2.80;;
13743;SDS011;6943;52.368;9.966;2023-05-29T11:13:04;6.55;;;2.70;;
13743;SDS011;6943;52.368;9.966;2023-05-29T11:15:32;6.27;;;2.43;;
13743;SDS011;6943;52.368;9.966;2023-05-29T11:18:05;7.83;;;3.30;;
13743;SDS011;6943;52.368;9.966;2023-05-29T11:23:04;4.50;;;3.20;;
13743;SDS011;6943;52.368;9.966;2023-05-29T11:25:33;4.77;;;2.77;;
13743;SDS011;6943;52.368;9.966;2023-05-29T11:27:59;6.00;;;2.37;;
13743;SDS011;6943;52.368;9.966;2023-05-29T11:30:25;4.70;;;2.03;;
13743;SDS011;6943;52.368;9.966;2023-05-29T11:32:51;6.30;;;2.73;;
13743;SDS011;6943;52.368;9.966;2023-05-29T11:35:19;3.77;;;2.37;;
13743;SDS011;6943;52.368;9.966;2023-05-29T11:37:45;5.93;;;2.47;;
13743;SDS011;6943;52.368;9.966;2023-05-29T11:40:12;6.13;;;2.90;;
13743;SDS011;6943;52.368;9.966;2023-05-29T11:42:42;5.20;;;2.60;;
13743;SDS011;6943;52.368;9.966;2023-05-29T11:45:15;8.23;;;3.00;;
13743;SDS011;6943;52.368;9.966;2023-05-29T11:47:54;4.13;;;2.25;;
13743;SDS011;6943;52.368;9.966;2023-05-29T11:50:24;6.05;;;2.25;;
13743;SDS011;6943;52.368;9.966;2023-05-29T11:52:50;6.78;;;3.15;;
13743;SDS011;6943;52.368;9.966;2023-05-29T11:55:17;4.47;;;1.93;;
13743;SDS011;6943;52.368;9.966;2023-05-29T11:57:44;7.33;;;2.60;;
13743;SDS011;6943;52.368;9.966;2023-05-29T12:00:19;5.57;;;2.90;;
13743;SDS011;6943;52.368;9.966;2023-05-29T12:02:45;12.47;;;3.07;;
13743;SDS011;6943;52.368;9.966;2023-05-29T12:05:12;6.10;;;2.43;;
13743;SDS011;6943;52.368;9.966;2023-05-29T12:07:49;6.33;;;2.73;;
13743;SDS011;6943;52.368;9.966;2023-05-29T12:10:16;5.13;;;2.93;;
13743;SDS011;6943;52.368;9.966;2023-05-29T12:12:46;4.40;;;2.33;;
13743;SDS011;6943;52.368;9.966;2023-05-29T12:15:12;6.67;;;2.53;;
13743;SDS011;6943;52.368;9.966;2023-05-29T12:17:38;5.03;;;2.73;;
13743;SDS011;6943;52.368;9.966;2023-05-29T12:20:05;4.80;;;2.70;;
13743;SDS011;6943;52.368;9.966;2023-05-29T12:22:34;4.83;;;2.87;;
13743;SDS011;6943;52.368;9.966;2023-05-29T12:25:07;5.10;;;2.97;;
13743;SDS011;6943;52.368;9.966;2023-05-29T12:27:33;4.97;;;3.27;;
13743;SDS011;6943;52.368;9.966;2023-05-29T12:30:06;5.40;;;3.47;;
13743;SDS011;6943;52.368;9.966;2023-05-29T12:32:34;8.70;;;3.17;;
13743;SDS011;6943;52.368;9.966;2023-05-29T12:35:00;7.43;;;2.87;;
13743;SDS011;6943;52.368;9.966;2023-05-29T12:37:28;6.60;;;2.77;;
13743;SDS011;6943;52.368;9.966;2023-05-29T12:40:14;7.30;;;2.93;;
13743;SDS011;6943;52.368;9.966;2023-05-29T12:42:41;4.40;;;2.73;;
13743;SDS011;6943;52.368;9.966;2023-05-29T12:45:07;5.57;;;2.90;;
13743;SDS011;6943;52.368;9.966;2023-05-29T12:47:34;4.77;;;2.50;;
13743;SDS011;6943;52.368;9.966;2023-05-29T12:52:55;4.33;;;2.30;;
13743;SDS011;6943;52.368;9.966;2023-05-29T12:55:21;5.53;;;2.63;;
13743;SDS011;6943;52.368;9.966;2023-05-29T12:57:47;5.60;;;2.97;;
13743;SDS011;6943;52.368;9.966;2023-05-29T13:00:13;5.07;;;2.77;;
13743;SDS011;6943;52.368;9.966;2023-05-29T13:02:39;6.40;;;3.10;;
13743;SDS011;6943;52.368;9.966;2023-05-29T13:05:05;5.80;;;3.00;;
13743;SDS011;6943;52.368;9.966;2023-05-29T13:07:32;6.63;;;3.47;;
13743;SDS011;6943;52.368;9.966;2023-05-29T13:09:59;5.33;;;3.20;;
13743;SDS011;6943;52.368;9.966;2023-05-29T13:12:26;5.67;;;2.70;;
13743;SDS011;6943;52.368;9.966;2023-05-29T13:14:52;6.03;;;2.57;;
13743;SDS011;6943;52.368;9.966;2023-05-29T13:17:21;4.80;;;2.90;;
13743;SDS011;6943;52.368;9.966;2023-05-29T13:19:46;6.17;;;2.43;;
13743;SDS011;6943;52.368;9.966;2023-05-29T13:22:12;7.23;;;2.90;;
13743;SDS011;6943;52.368;9.966;2023-05-29T13:24:38;6.90;;;2.77;;
13743;SDS011;6943;52.368;9.966;2023-05-29T13:27:04;7.40;;;2.80;;
13743;SDS011;6943;52.368;9.966;2023-05-29T13:29:31;6.40;;;2.67;;
13743;SDS011;6943;52.368;9.966;2023-05-29T13:31:57;6.53;;;2.50;;
13743;SDS011;6943;52.368;9.966;2023-05-29T13:34:23;6.63;;;3.33;;
13743;SDS011;6943;52.368;9.966;2023-05-29T13:36:53;4.57;;;2.70;;
13743;SDS011;6943;52.368;9.966;2023-05-29T13:39:19;6.03;;;2.60;;
13743;SDS011;6943;52.368;9.966;2023-05-29T13:41:45;4.83;;;2.17;;
13743;SDS011;6943;52.368;9.966;2023-05-29T13:44:11;4.80;;;2.20;;
13743;SDS011;6943;52.368;9.966;2023-05-29T13:46:37;6.67;;;2.93;;
13743;SDS011;6943;52.368;9.966;2023-05-29T13:49:03;6.97;;;2.60;;
13743;SDS011;6943;52.368;9.966;2023-05-29T13:51:29;4.83;;;2.20;;
13743;SDS011;6943;52.368;9.966;2023-05-29T13:53:55;6.60;;;2.40;;
13743;SDS011;6943;52.368;9.966;2023-05-29T13:56:21;7.67;;;2.63;;
13743;SDS011;6943;52.368;9.966;2023-05-29T13:58:47;7.97;;;2.80;;
13743;SDS011;6943;52.368;9.966;2023-05-29T14:01:13;5.20;;;2.20;;
13743;SDS011;6943;52.368;9.966;2023-05-29T14:03:40;5.10;;;2.73;;
13743;SDS011;6943;52.368;9.966;2023-05-29T14:06:06;5.47;;;2.57;;
13743;SDS011;6943;52.368;9.966;2023-05-29T14:08:32;5.10;;;2.23;;
13743;SDS011;6943;52.368;9.966;2023-05-29T14:10:57;4.57;;;2.07;;
13743;SDS011;6943;52.368;9.966;2023-05-29T14:13:23;6.40;;;2.78;;
13743;SDS011;6943;52.368;9.966;2023-05-29T14:15:49;4.10;;;2.30;;
13743;SDS011;6943;52.368;9.966;2023-05-29T14:18:15;3.57;;;1.87;;
13743;SDS011;6943;52.368;9.966;2023-05-29T14:20:41;5.47;;;2.90;;
13743;SDS011;6943;52.368;9.966;2023-05-29T14:23:12;5.67;;;2.50;;
13743;SDS011;6943;52.368;9.966;2023-05-29T14:25:40;5.90;;;2.50;;
13743;SDS011;6943;52.368;9.966;2023-05-29T14:28:06;6.63;;;2.63;;
13743;SDS011;6943;52.368;9.966;2023-05-29T14:30:32;6.37;;;2.67;;
13743;SDS011;6943;52.368;9.966;2023-05-29T14:32:58;8.10;;;3.10;;
13743;SDS011;6943;52.368;9.966;2023-05-29T14:35:24;5.50;;;3.07;;
13743;SDS011;6943;52.368;9.966;2023-05-29T14:37:50;4.63;;;2.50;;
13743;SDS011;6943;52.368;9.966;2023-05-29T14:40:17;7.00;;;3.77;;
13743;SDS011;6943;52.368;9.966;2023-05-29T14:42:42;5.97;;;2.87;;
13743;SDS011;6943;52.368;9.966;2023-05-29T14:45:08;3.93;;;2.37;;
13743;SDS011;6943;52.368;9.966;2023-05-29T14:47:35;5.77;;;2.70;;
13743;SDS011;6943;52.368;9.966;2023-05-29T14:50:01;4.07;;;2.07;;
13743;SDS011;6943;52.368;9.966;2023-05-29T14:52:27;7.17;;;2.87;;
13743;SDS011;6943;52.368;9.966;2023-05-29T14:54:53;4.07;;;2.47;;
13743;SDS011;6943;52.368;9.966;2023-05-29T14:57:19;4.57;;;2.53;;
13743;SDS011;6943;52.368;9.966;2023-05-29T14:59:45;8.18;;;2.80;;
13743;SDS011;6943;52.368;9.966;2023-05-29T15:02:11;5.33;;;2.20;;
13743;SDS011;6943;52.368;9.966;2023-05-29T15:04:36;4.10;;;2.27;;
13743;SDS011;6943;52.368;9.966;2023-05-29T15:07:02;6.77;;;2.70;;
13743;SDS011;6943;52.368;9.966;2023-05-29T15:09:29;6.03;;;2.60;;
13743;SDS011;6943;52.368;9.966;2023-05-29T15:11:55;7.20;;;2.63;;
13743;SDS011;6943;52.368;9.966;2023-05-29T15:14:21;5.87;;;2.50;;